Time;durP1;ratioP1;P1;durP2;ratioP2;P2;SDS_P1;SDS_P2;PMS_P1;PMS_P2;Temp;Humidity;BMP_temperature;BMP_pressure;BME280_temperature;BME280_humidity;BME280_pressure;Samples;Min_cycle;Max_cycle;Signal;HPM_P1;HPM_P2
2023/06/27 15:37:32;;;;;;;64.22;6.53;;;;;;;27.65;28.77;97926.88;5033687;28;20422;-57
2023/06/27 15:39:58;;;;;;;226.25;85.22;;;;;;;28.11;28.13;97928.81;5037336;28;20043;-56
2023/06/27 15:42:23;;;;;;;141.43;86.30;;;;;;;27.47;27.90;97931.75;5010434;28;20152;-58
2023/06/27 15:44:48;;;;;;;302.95;78.65;;;;;;;27.11;29.29;97926.34;5009013;28;20033;-57
2023/06/27 15:47:14;;;;;;;90.97;32.38;;;;;;;27.01;28.77;97923.47;5023567;28;20308;-56
2023/06/27 15:49:39;;;;;;;503.92;450.10;;;;;;;27.64;29.10;97926.97;5029238;28;20521;-56
2023/06/27 15:52:05;;;;;;;267.50;170.20;;;;;;;27.80;28.79;97934.72;5023771;28;20190;-57
2023/06/27 15:54:31;;;;;;;69.55;10.48;;;;;;;27.45;28.14;97922.13;5028839;28;20055;-55
2023/06/27 15:56:56;;;;;;;274.48;104.05;;;;;;;27.86;27.99;97922.69;5025782;28;20098;-56
2023/06/27 15:59:21;;;;;;;281.77;228.65;;;;;;;27.86;27.70;97915.53;5027771;28;20076;-57
2023/06/27 16:01:47;;;;;;;675.42;611.83;;;;;;;27.79;27.48;97914.28;5027619;28;20621;-55
2023/06/27 16:04:13;;;;;;;214.77;137.13;;;;;;;27.74;27.89;97911.97;5027108;28;20036;-57
2023/06/27 16:06:38;;;;;;;630.35;558.22;;;;;;;27.73;28.91;97912.94;5027316;28;20041;-57
2023/06/27 16:09:05;;;;;;;167.50;48.22;;;;;;;27.58;28.36;97914.06;5028247;28;20277;-56
2023/06/27 16:11:33;;;;;;;398.70;331.15;;;;;;;27.40;29.40;97907.31;5027735;28;20037;-55
2023/06/27 16:13:59;;;;;;;279.15;150.45;;;;;;;26.80;29.45;97898.31;5026516;28;20121;-55
2023/06/27 16:16:25;;;;;;;180.02;58.28;;;;;;;26.67;29.40;97896.53;5025647;28;20461;-55
2023/06/27 16:18:51;;;;;;;625.25;562.97;;;;;;;27.16;29.69;97902.81;5028381;28;20041;-55
2023/06/27 16:21:17;;;;;;;623.65;558.42;;;;;;;-148.24;100.00;61531.34;5024984;28;20115;-57
2023/06/27 16:23:44;;;;;;;584.92;510.85;;;;;;;-148.24;100.00;61531.34;5027726;28;20492;-56
2023/06/27 16:26:09;;;;;;;182.57;50.97;;;;;;;-148.24;100.00;61531.34;5022327;28;20040;-57
2023/06/27 16:28:34;;;;;;;149.38;49.50;;;;;;;-148.24;100.00;61531.34;5027273;28;20040;-55
2023/06/27 16:31:00;;;;;;;320.95;204.60;;;;;;;-148.24;100.00;61531.34;5025052;28;20076;-56
2023/06/27 16:33:25;;;;;;;102.68;36.13;;;;;;;-148.24;100.00;61531.34;5027813;28;20083;-56
2023/06/27 16:35:51;;;;;;;103.38;13.75;;;;;;;-148.24;100.00;61531.34;5024906;28;20443;-56
2023/06/27 16:38:17;;;;;;;463.92;414.75;;;;;;;-148.24;100.00;61531.34;5025437;28;20466;-54
2023/06/27 16:40:42;;;;;;;589.92;535.20;;;;;;;-148.24;100.00;61531.34;5028912;28;20052;-54
2023/06/27 16:43:08;;;;;;;408.42;344.83;;;;;;;-148.24;100.00;61531.34;5028413;28;20025;-54
2023/06/27 16:45:33;;;;;;;403.92;290.80;;;;;;;-148.24;100.00;61531.34;5026178;28;20040;-55
2023/06/27 16:48:00;;;;;;;307.80;227.05;;;;;;;-148.24;100.00;61531.34;5017261;28;20060;-55
2023/06/27 16:50:25;;;;;;;433.00;262.73;;;;;;;-148.24;100.00;61531.34;5015001;28;20033;-55
2023/06/27 16:52:51;;;;;;;290.90;158.15;;;;;;;-148.24;100.00;61531.34;5013802;28;20211;-56
2023/06/27 16:55:16;;;;;;;431.38;383.25;;;;;;;-148.24;100.00;61531.34;5012448;28;20215;-54
2023/06/27 16:57:43;;;;;;;316.80;209.45;;;;;;;-148.24;100.00;61531.34;5020476;28;20470;-55
2023/06/27 17:00:11;;;;;;;349.65;209.10;;;;;;;-148.24;100.00;61531.34;5014186;28;20164;-55
2023/06/27 17:02:37;;;;;;;166.20;89.68;;;;;;;-148.24;100.00;61531.34;5013115;28;20037;-59
2023/06/27 17:05:03;;;;;;;507.55;440.85;;;;;;;-148.24;100.00;61531.34;5014943;28;20084;-55
2023/06/27 17:07:29;;;;;;;321.13;288.83;;;;;;;-148.24;100.00;61531.34;5012997;28;20038;-56
2023/06/27 17:09:55;;;;;;;287.98;93.55;;;;;;;-148.24;100.00;61531.34;5012840;28;20025;-56
2023/06/27 17:12:20;;;;;;;83.13;34.30;;;;;;;-148.24;100.00;61531.34;5013975;28;20454;-53
2023/06/27 17:14:46;;;;;;;396.38;261.48;;;;;;;-148.24;100.00;61531.34;5014413;28;20026;-57
2023/06/27 17:17:11;;;;;;;238.43;144.07;;;;;;;-148.24;100.00;61531.34;5010684;28;20416;-54
2023/06/27 17:19:37;;;;;;;360.52;283.60;;;;;;;-148.24;100.00;61531.34;5013000;28;20102;-54
2023/06/27 17:22:03;;;;;;;459.50;294.67;;;;;;;-148.24;100.00;61531.34;5011092;28;20037;-53
2023/06/27 17:24:29;;;;;;;354.35;313.10;;;;;;;-148.24;100.00;61531.34;5013512;28;20621;-53
2023/06/27 17:26:54;;;;;;;589.65;539.60;;;;;;;-148.24;100.00;61531.34;5011657;28;20116;-54
2023/06/27 17:29:20;;;;;;;370.30;289.83;;;;;;;-148.24;100.00;61531.34;5012108;28;20033;-54
2023/06/27 17:31:45;;;;;;;547.22;495.88;;;;;;;-148.24;100.00;61531.34;5012196;28;20455;-56
2023/06/27 17:34:10;;;;;;;528.47;473.88;;;;;;;-148.24;100.00;61531.34;5012681;28;20037;-54
2023/06/27 17:36:36;;;;;;;413.80;371.17;;;;;;;-148.24;100.00;61531.34;5008948;28;20728;-54
2023/06/27 17:39:02;;;;;;;312.58;266.08;;;;;;;-148.24;100.00;61531.34;5012102;28;20033;-56
2023/06/27 17:41:27;;;;;;;195.15;58.88;;;;;;;-148.24;100.00;61531.34;5012951;28;20041;-52
2023/06/27 17:43:54;;;;;;;312.02;281.23;;;;;;;-148.24;100.00;61531.34;5011531;28;20392;-53
2023/06/27 17:46:20;;;;;;;351.52;297.65;;;;;;;-148.24;100.00;61531.34;5007304;28;20401;-53
2023/06/27 17:48:45;;;;;;;365.23;274.38;;;;;;;-148.24;100.00;61531.34;5012510;28;20044;-52
2023/06/27 17:51:11;;;;;;;374.05;273.17;;;;;;;-148.24;100.00;61531.34;5010304;28;20040;-53
2023/06/27 17:53:37;;;;;;;256.20;223.57;;;;;;;-148.24;100.00;61531.34;5013070;28;20029;-56
2023/06/27 17:56:02;;;;;;;125.15;22.05;;;;;;;-148.24;100.00;61531.34;5010181;28;20060;-54
2023/06/27 17:58:27;;;;;;;230.57;145.85;;;;;;;-148.24;100.00;61531.34;5013016;28;20446;-54
2023/06/27 18:00:56;;;;;;;222.50;158.52;;;;;;;-148.24;100.00;61531.34;5011929;28;20132;-54
2023/06/27 18:03:22;;;;;;;192.15;158.45;;;;;;;-148.24;100.00;61531.34;5011841;28;20239;-54
2023/06/27 18:05:48;;;;;;;562.85;510.23;;;;;;;-148.24;100.00;61531.34;5011957;28;20451;-55
2023/06/27 18:08:18;;;;;;;330.38;291.40;;;;;;;-148.24;100.00;61531.34;5008688;28;20025;-54
2023/06/27 18:10:43;;;;;;;145.60;88.90;;;;;;;-148.24;100.00;61531.34;5012378;28;20038;-56
2023/06/27 18:13:09;;;;;;;337.92;200.82;;;;;;;-148.24;100.00;61531.34;5012201;28;20021;-55
2023/06/27 18:15:34;;;;;;;254.77;176.00;;;;;;;-148.24;100.00;61531.34;5012203;28;20471;-57
2023/06/27 18:18:02;;;;;;;339.92;304.58;;;;;;;-148.24;100.00;61531.34;5011690;28;20098;-55
2023/06/27 18:20:28;;;;;;;560.17;504.08;;;;;;;-148.24;100.00;61531.34;5010702;28;20860;-55
2023/06/27 18:22:53;;;;;;;493.08;438.80;;;;;;;-148.24;100.00;61531.34;5012894;28;20036;-55
2023/06/27 18:25:19;;;;;;;86.35;19.38;;;;;;;-148.24;100.00;61531.34;5012323;28;20028;-56
2023/06/27 18:27:46;;;;;;;415.13;357.85;;;;;;;-148.24;100.00;61531.34;5013241;28;20364;-55
2023/06/27 18:30:11;;;;;;;110.60;21.92;;;;;;;-148.24;100.00;61531.34;5012829;28;20044;-57
2023/06/27 18:32:36;;;;;;;386.58;321.40;;;;;;;-148.24;100.00;61531.34;5013555;28;20021;-56
2023/06/27 18:35:02;;;;;;;394.42;354.65;;;;;;;-148.24;100.00;61531.34;5012134;28;20025;-56
2023/06/27 18:37:27;;;;;;;93.78;40.13;;;;;;;-148.24;100.00;61531.34;5013094;28;20152;-56
2023/06/27 18:39:53;;;;;;;140.18;87.50;;;;;;;-148.24;100.00;61531.34;5012399;28;20029;-57
2023/06/27 18:42:18;;;;;;;136.75;25.38;;;;;;;-148.24;100.00;61531.34;5010547;28;20525;-55
2023/06/27 18:44:45;;;;;;;348.35;308.25;;;;;;;-148.24;100.00;61531.34;5013447;28;20033;-56
2023/06/27 18:47:10;;;;;;;167.45;66.32;;;;;;;-148.24;100.00;61531.34;5007979;28;20752;-55
2023/06/27 18:49:35;;;;;;;172.07;92.57;;;;;;;-148.24;100.00;61531.34;5012949;28;20040;-56
2023/06/27 18:52:01;;;;;;;488.77;442.58;;;;;;;-148.24;100.00;61531.34;5011635;28;20036;-56
2023/06/27 18:54:26;;;;;;;484.85;440.40;;;;;;;-148.24;100.00;61531.34;5009748;28;20025;-56
2023/06/27 18:56:52;;;;;;;320.60;222.43;;;;;;;-148.24;100.00;61531.34;5008217;28;20033;-55
2023/06/27 18:59:17;;;;;;;126.50;43.97;;;;;;;-148.24;100.00;61531.34;5010937;28;20072;-54
2023/06/27 19:01:43;;;;;;;142.30;80.30;;;;;;;-148.24;100.00;61531.34;5011404;28;20623;-55
2023/06/27 19:04:08;;;;;;;608.38;546.28;;;;;;;-148.24;100.00;61531.34;5010473;28;20029;-55
2023/06/27 19:06:34;;;;;;;250.68;210.18;;;;;;;-148.24;100.00;61531.34;5008322;28;20277;-53
2023/06/27 19:08:59;;;;;;;207.98;124.07;;;;;;;-148.24;100.00;61531.34;5028560;28;20494;-55
2023/06/27 19:11:25;;;;;;;181.32;113.53;;;;;;;-148.24;100.00;61531.34;5009681;28;20048;-56
2023/06/27 19:13:50;;;;;;;295.50;260.40;;;;;;;-148.24;100.00;61531.34;5012118;28;20025;-57
2023/06/27 19:16:16;;;;;;;222.93;106.10;;;;;;;-148.24;100.00;61531.34;5008777;28;20534;-55
2023/06/27 19:18:41;;;;;;;86.20;7.95;;;;;;;-148.24;100.00;61531.34;5010863;28;20454;-56
2023/06/27 19:21:07;;;;;;;503.65;437.60;;;;;;;-148.24;100.00;61531.34;5008283;28;20442;-54
2023/06/27 19:23:32;;;;;;;296.85;253.70;;;;;;;-148.24;100.00;61531.34;5011717;28;20495;-54
2023/06/27 19:25:58;;;;;;;112.57;16.17;;;;;;;-148.24;100.00;61531.34;5010755;28;20064;-53
2023/06/27 19:28:23;;;;;;;66.32;6.20;;;;;;;-148.24;100.00;61531.34;5011742;28;20040;-55
2023/06/27 19:30:49;;;;;;;65.57;8.48;;;;;;;-148.24;100.00;61531.34;5012309;28;20029;-55
2023/06/27 19:33:15;;;;;;;109.55;16.25;;;;;;;-148.24;100.00;61531.34;5010353;28;20029;-54
2023/06/27 19:35:40;;;;;;;110.40;44.03;;;;;;;-148.24;100.00;61531.34;5011099;28;20044;-55
2023/06/27 19:38:06;;;;;;;77.57;7.85;;;;;;;-148.24;100.00;61531.34;5009367;28;20561;-56
2023/06/27 19:40:31;;;;;;;234.82;159.18;;;;;;;-148.24;100.00;61531.34;5010635;28;20433;-54
2023/06/27 19:42:57;;;;;;;188.52;106.63;;;;;;;-148.24;100.00;61531.34;5008549;28;20459;-54
2023/06/27 19:45:23;;;;;;;229.20;164.27;;;;;;;-148.24;100.00;61531.34;5010055;28;20037;-55
2023/06/27 19:47:48;;;;;;;179.57;111.85;;;;;;;-148.24;100.00;61531.34;5011269;28;20067;-55
2023/06/27 19:50:13;;;;;;;182.52;85.43;;;;;;;-148.24;100.00;61531.34;5010842;28;20048;-54
2023/06/27 19:52:39;;;;;;;95.03;26.52;;;;;;;-148.24;100.00;61531.34;5013031;28;20032;-58
2023/06/27 19:55:05;;;;;;;252.18;163.88;;;;;;;-148.24;100.00;61531.34;5011846;28;20037;-55
2023/06/27 19:57:30;;;;;;;57.25;7.45;;;;;;;-148.24;100.00;61531.34;5012783;28;20026;-56
2023/06/27 19:59:56;;;;;;;100.28;41.90;;;;;;;-148.24;100.00;61531.34;5012524;28;20049;-55
2023/06/27 20:02:21;;;;;;;134.10;11.10;;;;;;;-148.24;100.00;61531.34;5011843;28;20236;-54
2023/06/27 20:04:47;;;;;;;97.68;8.48;;;;;;;-148.24;100.00;61531.34;5011603;28;20033;-55
2023/06/27 20:07:12;;;;;;;119.07;9.27;;;;;;;-148.24;100.00;61531.34;5009991;28;20065;-55
2023/06/27 20:09:43;;;;;;;90.38;7.72;;;;;;;-148.24;100.00;61531.34;5011104;28;20033;-56
2023/06/27 20:12:09;;;;;;;92.68;10.05;;;;;;;-148.24;100.00;61531.34;5011248;28;20033;-55
2023/06/27 20:14:34;;;;;;;75.68;14.77;;;;;;;-148.24;100.00;61531.34;5011726;28;20390;-52
2023/06/27 20:17:00;;;;;;;92.05;35.00;;;;;;;-148.24;100.00;61531.34;5011665;28;20757;-55
2023/06/27 20:19:25;;;;;;;69.85;21.55;;;;;;;-148.24;100.00;61531.34;5010440;28;20555;-56
2023/06/27 20:21:51;;;;;;;53.50;5.95;;;;;;;-148.24;100.00;61531.34;5012696;28;20046;-56
2023/06/27 20:24:18;;;;;;;98.00;8.95;;;;;;;-148.24;100.00;61531.34;5014503;28;20025;-57
2023/06/27 20:26:43;;;;;;;64.63;11.40;;;;;;;-148.24;100.00;61531.34;5013168;28;20048;-56
2023/06/27 20:29:09;;;;;;;75.68;11.85;;;;;;;-148.24;100.00;61531.34;5013194;28;20026;-57
2023/06/27 20:31:35;;;;;;;64.72;5.55;;;;;;;-148.24;100.00;61531.34;5015025;28;20087;-54
2023/06/27 20:34:00;;;;;;;43.70;4.82;;;;;;;-148.24;100.00;61531.34;5015082;28;20045;-54
2023/06/27 20:36:27;;;;;;;64.47;7.45;;;;;;;-148.24;100.00;61531.34;5011971;28;20061;-54
2023/06/27 20:38:53;;;;;;;40.33;4.40;;;;;;;-148.24;100.00;61531.34;5014791;28;20026;-55
2023/06/27 20:41:20;;;;;;;93.97;12.95;;;;;;;-148.24;100.00;61531.34;5011528;28;20037;-56
2023/06/27 20:43:46;;;;;;;56.67;5.55;;;;;;;-148.24;100.00;61531.34;5014799;28;20021;-55
2023/06/27 20:46:11;;;;;;;71.13;7.18;;;;;;;-148.24;100.00;61531.34;5012817;28;20777;-55
2023/06/27 20:48:37;;;;;;;55.58;5.18;;;;;;;-148.24;100.00;61531.34;5014191;28;20032;-55
2023/06/27 20:51:02;;;;;;;69.05;6.40;;;;;;;-148.24;100.00;61531.34;5013889;28;20060;-57
2023/06/27 20:53:28;;;;;;;56.92;8.25;;;;;;;-148.24;100.00;61531.34;5012578;28;21448;-55
2023/06/27 20:55:53;;;;;;;78.30;7.03;;;;;;;-148.24;100.00;61531.34;5013217;28;20075;-54
2023/06/27 20:58:19;;;;;;;105.72;9.75;;;;;;;-148.24;100.00;61531.34;5013101;28;20116;-53
2023/06/27 21:00:44;;;;;;;50.50;5.05;;;;;;;-148.24;100.00;61531.34;5013279;28;20590;-55
2023/06/27 21:03:10;;;;;;;50.92;5.18;;;;;;;-148.24;100.00;61531.34;5011242;28;20030;-52
2023/06/27 21:05:35;;;;;;;68.22;6.38;;;;;;;-148.24;100.00;61531.34;5011188;28;20468;-56
2023/06/27 21:08:00;;;;;;;51.90;5.43;;;;;;;-148.24;100.00;61531.34;5013749;28;20029;-53
2023/06/27 21:10:26;;;;;;;85.72;8.63;;;;;;;27.28;29.18;97903.72;5012046;28;20420;-55
2023/06/27 21:12:51;;;;;;;79.00;7.45;;;;;;;21.12;44.21;97956.06;5012008;28;20034;-57
2023/06/27 21:15:17;;;;;;;100.68;9.05;;;;;;;20.89;43.12;97954.53;5011488;28;20025;-54
2023/06/27 21:17:42;;;;;;;69.88;10.00;;;;;;;20.93;43.56;97951.66;5011512;28;20033;-56
2023/06/27 21:20:08;;;;;;;59.35;6.53;;;;;;;20.90;43.51;97949.13;5012264;28;20398;-57
2023/06/27 21:22:33;;;;;;;52.53;5.45;;;;;;;20.94;43.47;97948.06;5010907;28;20092;-57
2023/06/27 21:24:58;;;;;;;414.10;367.73;;;;;;;20.85;43.82;97943.19;5014620;28;20031;-57
2023/06/27 21:27:27;;;;;;;85.03;7.90;;;;;;;20.83;44.18;97945.06;5011119;28;20045;-54
2023/06/27 21:29:53;;;;;;;38.97;4.43;;;;;;;20.76;43.88;97952.41;5014904;28;20033;-56
2023/06/27 21:32:18;;;;;;;92.60;8.48;;;;;;;20.77;44.55;97961.19;5012623;28;20385;-55
2023/06/27 21:34:44;;;;;;;92.65;7.55;;;;;;;20.70;44.39;97967.69;5012533;28;20120;-54
2023/06/27 21:37:09;;;;;;;50.58;5.13;;;;;;;20.57;44.84;97967.38;5014651;28;20197;-55
2023/06/27 21:39:35;;;;;;;169.25;66.20;;;;;;;20.50;45.36;97969.44;5013978;28;20040;-55
